sensor_id;sensor_type;location;lat;lon;timestamp;temperature;humidity
1411;DHT22;700;51.906;8.404;2023-05-10T00:02:39;18.50;99.90
1411;DHT22;700;51.906;8.404;2023-05-10T00:07:40;18.40;99.90
1411;DHT22;700;51.906;8.404;2023-05-10T00:12:44;18.40;99.90
1411;DHT22;700;51.906;8.404;2023-05-10T00:17:47;18.30;99.90
1411;DHT22;700;51.906;8.404;2023-05-10T00:22:48;18.30;99.90
1411;DHT22;700;51.906;8.404;2023-05-10T00:27:53;18.20;99.90
1411;DHT22;700;51.906;8.404;2023-05-10T00:32:55;18.20;99.90
1411;DHT22;700;51.906;8.404;2023-05-10T00:37:56;18.30;99.90
1411;DHT22;700;51.906;8.404;2023-05-10T00:43:01;18.20;99.90
1411;DHT22;700;51.906;8.404;2023-05-10T00:48:02;18.20;99.90
1411;DHT22;700;51.906;8.404;2023-05-10T00:53:06;18.30;99.90
1411;DHT22;700;51.906;8.404;2023-05-10T00:58:07;18.40;99.90
1411;DHT22;700;51.906;8.404;2023-05-10T01:03:10;18.40;99.90
1411;DHT22;700;51.906;8.404;2023-05-10T01:08:11;18.40;99.90
1411;DHT22;700;51.906;8.404;2023-05-10T01:13:23;18.40;99.90
1411;DHT22;700;51.906;8.404;2023-05-10T01:18:35;18.40;99.90
1411;DHT22;700;51.906;8.404;2023-05-10T01:29:25;18.60;99.90
1411;DHT22;700;51.906;8.404;2023-05-10T01:34:46;18.40;99.90
1411;DHT22;700;51.906;8.404;2023-05-10T01:39:58;18.20;99.90
1411;DHT22;700;51.906;8.404;2023-05-10T01:50:17;17.90;99.90
1411;DHT22;700;51.906;8.404;2023-05-10T01:55:21;17.50;99.90
1411;DHT22;700;51.906;8.404;2023-05-10T02:00:23;17.40;99.90
1411;DHT22;700;51.906;8.404;2023-05-10T02:05:25;17.30;99.90
1411;DHT22;700;51.906;8.404;2023-05-10T02:10:29;17.40;99.90
1411;DHT22;700;51.906;8.404;2023-05-10T02:15:31;17.30;99.90
1411;DHT22;700;51.906;8.404;2023-05-10T02:20:33;17.10;99.90
1411;DHT22;700;51.906;8.404;2023-05-10T02:25:36;17.20;99.90
1411;DHT22;700;51.906;8.404;2023-05-10T02:30:42;17.30;99.90
1411;DHT22;700;51.906;8.404;2023-05-10T02:35:46;17.30;99.90
1411;DHT22;700;51.906;8.404;2023-05-10T02:40:50;17.30;99.90
1411;DHT22;700;51.906;8.404;2023-05-10T02:45:52;17.30;99.90
1411;DHT22;700;51.906;8.404;2023-05-10T02:50:59;17.20;99.90
1411;DHT22;700;51.906;8.404;2023-05-10T02:56:13;17.40;99.90
1411;DHT22;700;51.906;8.404;2023-05-10T03:01:15;17.60;99.90
1411;DHT22;700;51.906;8.404;2023-05-10T03:06:19;17.20;99.90
1411;DHT22;700;51.906;8.404;2023-05-10T03:16:57;16.80;99.90
1411;DHT22;700;51.906;8.404;2023-05-10T03:22:08;16.80;99.90
1411;DHT22;700;51.906;8.404;2023-05-10T03:27:10;17.10;99.90
1411;DHT22;700;51.906;8.404;2023-05-10T03:32:11;17.10;99.90
1411;DHT22;700;51.906;8.404;2023-05-10T03:37:12;17.20;99.90
1411;DHT22;700;51.906;8.404;2023-05-10T03:42:15;17.20;99.90
1411;DHT22;700;51.906;8.404;2023-05-10T03:47:20;17.20;99.90
1411;DHT22;700;51.906;8.404;2023-05-10T03:52:23;17.20;99.90
1411;DHT22;700;51.906;8.404;2023-05-10T03:57:23;17.00;99.90
1411;DHT22;700;51.906;8.404;2023-05-10T04:02:26;17.00;99.90
1411;DHT22;700;51.906;8.404;2023-05-10T04:07:27;17.00;99.90
1411;DHT22;700;51.906;8.404;2023-05-10T04:12:27;16.90;99.90
1411;DHT22;700;51.906;8.404;2023-05-10T04:17:28;17.00;99.90
1411;DHT22;700;51.906;8.404;2023-05-10T04:22:32;17.00;99.90
1411;DHT22;700;51.906;8.404;2023-05-10T04:27:32;16.80;99.90
1411;DHT22;700;51.906;8.404;2023-05-10T04:32:33;16.80;99.90
1411;DHT22;700;51.906;8.404;2023-05-10T04:37:38;16.90;99.90
1411;DHT22;700;51.906;8.404;2023-05-10T04:42:43;16.90;99.90
1411;DHT22;700;51.906;8.404;2023-05-10T04:47:46;16.90;99.90
1411;DHT22;700;51.906;8.404;2023-05-10T04:52:49;16.90;99.90
1411;DHT22;700;51.906;8.404;2023-05-10T04:57:50;16.90;99.90
1411;DHT22;700;51.906;8.404;2023-05-10T05:02:50;16.90;99.90
1411;DHT22;700;51.906;8.404;2023-05-10T05:07:56;16.90;99.90
1411;DHT22;700;51.906;8.404;2023-05-10T05:12:56;17.00;99.90
1411;DHT22;700;51.906;8.404;2023-05-10T05:17:59;17.10;99.90
1411;DHT22;700;51.906;8.404;2023-05-10T05:23:00;17.10;99.90
1411;DHT22;700;51.906;8.404;2023-05-10T05:28:03;17.00;99.90
1411;DHT22;700;51.906;8.404;2023-05-10T05:33:04;17.00;99.90
1411;DHT22;700;51.906;8.404;2023-05-10T05:38:04;17.00;99.90
1411;DHT22;700;51.906;8.404;2023-05-10T05:43:05;16.90;99.90
1411;DHT22;700;51.906;8.404;2023-05-10T05:48:06;17.00;99.90
1411;DHT22;700;51.906;8.404;2023-05-10T05:53:06;16.60;99.90
1411;DHT22;700;51.906;8.404;2023-05-10T05:58:10;16.70;99.90
1411;DHT22;700;51.906;8.404;2023-05-10T06:03:10;16.80;99.90
1411;DHT22;700;51.906;8.404;2023-05-10T06:08:11;17.00;99.90
1411;DHT22;700;51.906;8.404;2023-05-10T06:13:14;16.90;99.90
1411;DHT22;700;51.906;8.404;2023-05-10T06:18:14;17.10;99.90
1411;DHT22;700;51.906;8.404;2023-05-10T06:23:17;17.20;99.90
1411;DHT22;700;51.906;8.404;2023-05-10T06:28:20;17.20;99.90
1411;DHT22;700;51.906;8.404;2023-05-10T06:33:21;17.30;99.90
1411;DHT22;700;51.906;8.404;2023-05-10T06:38:22;17.40;99.90
1411;DHT22;700;51.906;8.404;2023-05-10T06:43:23;17.40;99.90
1411;DHT22;700;51.906;8.404;2023-05-10T06:48:24;17.20;99.90
1411;DHT22;700;51.906;8.404;2023-05-10T06:53:25;17.10;99.90
1411;DHT22;700;51.906;8.404;2023-05-10T06:58:25;17.00;99.90
1411;DHT22;700;51.906;8.404;2023-05-10T07:03:26;17.00;99.90
1411;DHT22;700;51.906;8.404;2023-05-10T07:08:27;17.10;99.90
1411;DHT22;700;51.906;8.404;2023-05-10T07:13:33;17.40;99.90
1411;DHT22;700;51.906;8.404;2023-05-10T07:18:34;17.60;99.90
1411;DHT22;700;51.906;8.404;2023-05-10T07:23:37;17.70;99.90
1411;DHT22;700;51.906;8.404;2023-05-10T07:28:37;17.90;99.90
1411;DHT22;700;51.906;8.404;2023-05-10T07:33:39;18.20;99.90
1411;DHT22;700;51.906;8.404;2023-05-10T07:38:45;18.50;99.90
1411;DHT22;700;51.906;8.404;2023-05-10T07:43:45;18.30;99.90
1411;DHT22;700;51.906;8.404;2023-05-10T07:48:48;18.50;99.90
1411;DHT22;700;51.906;8.404;2023-05-10T07:53:49;18.10;99.90
1411;DHT22;700;51.906;8.404;2023-05-10T07:58:51;18.30;99.90
1411;DHT22;700;51.906;8.404;2023-05-10T08:03:52;18.60;99.90
1411;DHT22;700;51.906;8.404;2023-05-10T08:08:56;18.80;99.90
1411;DHT22;700;51.906;8.404;2023-05-10T08:13:57;19.00;99.90
1411;DHT22;700;51.906;8.404;2023-05-10T08:18:57;19.10;99.90
1411;DHT22;700;51.906;8.404;2023-05-10T08:23:58;18.70;99.90
1411;DHT22;700;51.906;8.404;2023-05-10T08:29:01;18.70;99.90
1411;DHT22;700;51.906;8.404;2023-05-10T08:34:02;18.60;99.90
1411;DHT22;700;51.906;8.404;2023-05-10T08:39:05;18.60;99.90
1411;DHT22;700;51.906;8.404;2023-05-10T08:44:10;18.70;99.90
1411;DHT22;700;51.906;8.404;2023-05-10T08:49:19;18.40;99.90
1411;DHT22;700;51.906;8.404;2023-05-10T08:54:23;18.50;99.90
1411;DHT22;700;51.906;8.404;2023-05-10T08:59:24;18.90;99.90
1411;DHT22;700;51.906;8.404;2023-05-10T09:04:28;18.80;99.90
1411;DHT22;700;51.906;8.404;2023-05-10T09:09:32;18.80;99.90
1411;DHT22;700;51.906;8.404;2023-05-10T09:14:35;19.10;99.90
1411;DHT22;700;51.906;8.404;2023-05-10T09:19:35;19.40;99.90
1411;DHT22;700;51.906;8.404;2023-05-10T09:24:39;20.60;99.90
1411;DHT22;700;51.906;8.404;2023-05-10T09:29:43;21.00;99.90
1411;DHT22;700;51.906;8.404;2023-05-10T09:34:43;21.30;99.90
1411;DHT22;700;51.906;8.404;2023-05-10T09:39:45;24.40;99.90
1411;DHT22;700;51.906;8.404;2023-05-10T09:44:45;23.90;99.90
1411;DHT22;700;51.906;8.404;2023-05-10T09:49:50;22.90;99.90
1411;DHT22;700;51.906;8.404;2023-05-10T09:54:56;26.80;99.90
1411;DHT22;700;51.906;8.404;2023-05-10T10:00:00;32.60;99.20
1411;DHT22;700;51.906;8.404;2023-05-10T10:05:01;32.00;90.00
1411;DHT22;700;51.906;8.404;2023-05-10T10:10:03;30.60;89.80
1411;DHT22;700;51.906;8.404;2023-05-10T10:15:08;34.30;81.40
1411;DHT22;700;51.906;8.404;2023-05-10T10:20:10;37.70;60.60
1411;DHT22;700;51.906;8.404;2023-05-10T10:25:12;33.70;55.90
1411;DHT22;700;51.906;8.404;2023-05-10T10:30:28;31.10;67.10
1411;DHT22;700;51.906;8.404;2023-05-10T10:35:33;30.70;66.10
1411;DHT22;700;51.906;8.404;2023-05-10T10:40:34;32.90;66.40
1411;DHT22;700;51.906;8.404;2023-05-10T10:45:39;35.30;58.90
1411;DHT22;700;51.906;8.404;2023-05-10T10:50:44;32.20;61.30
1411;DHT22;700;51.906;8.404;2023-05-10T10:55:47;30.70;68.30
1411;DHT22;700;51.906;8.404;2023-05-10T11:00:48;29.10;71.60
1411;DHT22;700;51.906;8.404;2023-05-10T11:06:00;28.30;74.40
1411;DHT22;700;51.906;8.404;2023-05-10T11:11:06;30.00;72.50
1411;DHT22;700;51.906;8.404;2023-05-10T11:16:21;29.10;73.10
1411;DHT22;700;51.906;8.404;2023-05-10T11:21:26;27.60;80.20
1411;DHT22;700;51.906;8.404;2023-05-10T11:26:36;26.40;90.60
1411;DHT22;700;51.906;8.404;2023-05-10T11:31:45;24.80;97.40
1411;DHT22;700;51.906;8.404;2023-05-10T11:36:51;24.70;99.90
1411;DHT22;700;51.906;8.404;2023-05-10T11:41:52;24.30;99.90
1411;DHT22;700;51.906;8.404;2023-05-10T11:46:52;24.10;99.90
1411;DHT22;700;51.906;8.404;2023-05-10T11:51:55;23.70;99.90
1411;DHT22;700;51.906;8.404;2023-05-10T11:57:03;22.80;99.90
1411;DHT22;700;51.906;8.404;2023-05-10T12:02:06;22.40;99.90
1411;DHT22;700;51.906;8.404;2023-05-10T12:07:07;21.40;99.90
1411;DHT22;700;51.906;8.404;2023-05-10T12:12:08;20.80;99.90
1411;DHT22;700;51.906;8.404;2023-05-10T12:17:14;20.80;99.90
1411;DHT22;700;51.906;8.404;2023-05-10T12:22:20;20.50;99.90
1411;DHT22;700;51.906;8.404;2023-05-10T12:27:23;20.20;99.90
1411;DHT22;700;51.906;8.404;2023-05-10T12:32:37;20.50;99.90
1411;DHT22;700;51.906;8.404;2023-05-10T12:37:39;20.10;99.90
1411;DHT22;700;51.906;8.404;2023-05-10T12:42:39;20.40;99.90
1411;DHT22;700;51.906;8.404;2023-05-10T12:47:42;20.20;99.90
1411;DHT22;700;51.906;8.404;2023-05-10T12:52:43;21.10;99.90
1411;DHT22;700;51.906;8.404;2023-05-10T12:57:43;22.10;99.90
1411;DHT22;700;51.906;8.404;2023-05-10T13:02:46;22.10;99.90
1411;DHT22;700;51.906;8.404;2023-05-10T13:07:47;22.30;99.90
1411;DHT22;700;51.906;8.404;2023-05-10T13:12:47;21.90;99.90
1411;DHT22;700;51.906;8.404;2023-05-10T13:17:51;21.80;99.90
1411;DHT22;700;51.906;8.404;2023-05-10T13:22:51;21.40;99.90
1411;DHT22;700;51.906;8.404;2023-05-10T13:27:52;21.30;99.90
1411;DHT22;700;51.906;8.404;2023-05-10T13:32:52;20.90;99.90
1411;DHT22;700;51.906;8.404;2023-05-10T13:37:58;20.40;99.90
1411;DHT22;700;51.906;8.404;2023-05-10T13:42:59;20.20;99.90
1411;DHT22;700;51.906;8.404;2023-05-10T13:48:02;20.20;99.90
1411;DHT22;700;51.906;8.404;2023-05-10T13:53:05;20.20;99.90
1411;DHT22;700;51.906;8.404;2023-05-10T13:58:05;20.40;99.90
1411;DHT22;700;51.906;8.404;2023-05-10T14:03:06;20.60;99.90
1411;DHT22;700;51.906;8.404;2023-05-10T14:08:11;20.90;99.90
1411;DHT22;700;51.906;8.404;2023-05-10T14:13:13;21.10;99.90
1411;DHT22;700;51.906;8.404;2023-05-10T14:18:14;21.20;99.90
1411;DHT22;700;51.906;8.404;2023-05-10T14:23:14;20.90;99.90
1411;DHT22;700;51.906;8.404;2023-05-10T14:28:15;20.90;99.90
1411;DHT22;700;51.906;8.404;2023-05-10T14:33:18;21.00;99.90
1411;DHT22;700;51.906;8.404;2023-05-10T14:38:18;20.80;99.90
1411;DHT22;700;51.906;8.404;2023-05-10T14:43:19;20.90;99.90
1411;DHT22;700;51.906;8.404;2023-05-10T14:48:22;21.00;99.90
1411;DHT22;700;51.906;8.404;2023-05-10T14:53:25;21.20;99.90
1411;DHT22;700;51.906;8.404;2023-05-10T14:58:25;21.00;99.90
1411;DHT22;700;51.906;8.404;2023-05-10T15:03:26;20.90;99.90
1411;DHT22;700;51.906;8.404;2023-05-10T15:08:29;20.90;99.90
1411;DHT22;700;51.906;8.404;2023-05-10T15:13:29;20.80;99.90
1411;DHT22;700;51.906;8.404;2023-05-10T15:18:32;21.20;99.90
1411;DHT22;700;51.906;8.404;2023-05-10T15:23:35;20.80;99.90
1411;DHT22;700;51.906;8.404;2023-05-10T15:28:36;20.80;99.90
1411;DHT22;700;51.906;8.404;2023-05-10T15:33:37;20.50;99.90
1411;DHT22;700;51.906;8.404;2023-05-10T15:38:40;19.80;99.90
1411;DHT22;700;51.906;8.404;2023-05-10T15:43:41;19.50;99.90
1411;DHT22;700;51.906;8.404;2023-05-10T15:48:42;19.00;99.90
1411;DHT22;700;51.906;8.404;2023-05-10T15:53:42;19.00;99.90
1411;DHT22;700;51.906;8.404;2023-05-10T15:58:43;19.00;99.90
1411;DHT22;700;51.906;8.404;2023-05-10T16:03:44;18.90;99.90
1411;DHT22;700;51.906;8.404;2023-05-10T16:08:44;18.90;99.90
1411;DHT22;700;51.906;8.404;2023-05-10T16:13:47;18.80;99.90
1411;DHT22;700;51.906;8.404;2023-05-10T16:18:48;18.70;99.90
1411;DHT22;700;51.906;8.404;2023-05-10T16:23:51;18.70;99.90
1411;DHT22;700;51.906;8.404;2023-05-10T16:28:52;18.80;99.90
1411;DHT22;700;51.906;8.404;2023-05-10T16:33:52;18.70;99.90
1411;DHT22;700;51.906;8.404;2023-05-10T16:38:55;18.40;99.90
1411;DHT22;700;51.906;8.404;2023-05-10T16:44:01;18.30;99.90
1411;DHT22;700;51.906;8.404;2023-05-10T16:49:03;18.10;99.90
1411;DHT22;700;51.906;8.404;2023-05-10T16:54:03;17.90;99.90
1411;DHT22;700;51.906;8.404;2023-05-10T16:59:04;17.90;99.90
1411;DHT22;700;51.906;8.404;2023-05-10T17:04:07;17.80;99.90
1411;DHT22;700;51.906;8.404;2023-05-10T17:09:07;17.70;99.90
1411;DHT22;700;51.906;8.404;2023-05-10T17:14:08;17.70;99.90
1411;DHT22;700;51.906;8.404;2023-05-10T17:19:11;17.80;99.90
1411;DHT22;700;51.906;8.404;2023-05-10T17:24:12;17.60;99.90
1411;DHT22;700;51.906;8.404;2023-05-10T17:29:16;17.80;99.90
1411;DHT22;700;51.906;8.404;2023-05-10T17:34:16;17.40;99.90
1411;DHT22;700;51.906;8.404;2023-05-10T17:39:17;17.30;99.90
1411;DHT22;700;51.906;8.404;2023-05-10T17:44:17;17.20;99.90
1411;DHT22;700;51.906;8.404;2023-05-10T17:49:18;17.00;99.90
1411;DHT22;700;51.906;8.404;2023-05-10T17:54:19;16.70;99.90
1411;DHT22;700;51.906;8.404;2023-05-10T17:59:22;16.40;99.90
1411;DHT22;700;51.906;8.404;2023-05-10T18:04:25;16.40;99.90
1411;DHT22;700;51.906;8.404;2023-05-10T18:09:27;16.50;99.90
1411;DHT22;700;51.906;8.404;2023-05-10T18:14:30;16.30;99.90
1411;DHT22;700;51.906;8.404;2023-05-10T18:19:32;16.10;99.90
1411;DHT22;700;51.906;8.404;2023-05-10T18:24:35;16.20;99.90
1411;DHT22;700;51.906;8.404;2023-05-10T18:29:38;16.30;99.90
1411;DHT22;700;51.906;8.404;2023-05-10T18:34:42;16.30;99.90
1411;DHT22;700;51.906;8.404;2023-05-10T18:39:42;16.30;99.90
1411;DHT22;700;51.906;8.404;2023-05-10T18:44:45;16.60;99.90
1411;DHT22;700;51.906;8.404;2023-05-10T18:49:46;16.60;99.90
1411;DHT22;700;51.906;8.404;2023-05-10T18:54:48;16.80;99.90
1411;DHT22;700;51.906;8.404;2023-05-10T18:59:48;16.90;99.90
1411;DHT22;700;51.906;8.404;2023-05-10T19:04:49;17.00;99.90
1411;DHT22;700;51.906;8.404;2023-05-10T19:09:49;17.20;99.90
1411;DHT22;700;51.906;8.404;2023-05-10T19:14:52;17.20;99.90
1411;DHT22;700;51.906;8.404;2023-05-10T19:19:53;17.20;99.90
1411;DHT22;700;51.906;8.404;2023-05-10T19:24:56;17.30;99.90
1411;DHT22;700;51.906;8.404;2023-05-10T19:29:59;17.30;99.90
1411;DHT22;700;51.906;8.404;2023-05-10T19:35:00;17.30;99.90
1411;DHT22;700;51.906;8.404;2023-05-10T19:40:01;17.30;99.90
1411;DHT22;700;51.906;8.404;2023-05-10T19:45:02;17.30;99.90
1411;DHT22;700;51.906;8.404;2023-05-10T19:50:03;17.30;99.90
1411;DHT22;700;51.906;8.404;2023-05-10T19:55:04;17.30;99.90
1411;DHT22;700;51.906;8.404;2023-05-10T20:00:05;17.30;99.90
1411;DHT22;700;51.906;8.404;2023-05-10T20:05:07;17.30;99.90
1411;DHT22;700;51.906;8.404;2023-05-10T20:10:10;17.20;99.90
1411;DHT22;700;51.906;8.404;2023-05-10T20:15:11;17.00;99.90
1411;DHT22;700;51.906;8.404;2023-05-10T20:20:14;17.10;99.90
1411;DHT22;700;51.906;8.404;2023-05-10T20:25:19;16.90;99.90
1411;DHT22;700;51.906;8.404;2023-05-10T20:30:20;16.80;99.90
1411;DHT22;700;51.906;8.404;2023-05-10T20:35:21;16.80;99.90
1411;DHT22;700;51.906;8.404;2023-05-10T20:40:22;16.80;99.90
1411;DHT22;700;51.906;8.404;2023-05-10T20:45:25;16.70;99.90
1411;DHT22;700;51.906;8.404;2023-05-10T20:50:25;16.30;99.90
1411;DHT22;700;51.906;8.404;2023-05-10T20:55:28;16.60;99.90
1411;DHT22;700;51.906;8.404;2023-05-10T21:00:29;16.50;99.90
1411;DHT22;700;51.906;8.404;2023-05-10T21:05:30;16.50;99.90
1411;DHT22;700;51.906;8.404;2023-05-10T21:10:33;16.40;99.90
1411;DHT22;700;51.906;8.404;2023-05-10T21:15:34;16.50;99.90
1411;DHT22;700;51.906;8.404;2023-05-10T21:20:34;16.70;99.90
1411;DHT22;700;51.906;8.404;2023-05-10T21:25:35;16.70;99.90
1411;DHT22;700;51.906;8.404;2023-05-10T21:30:36;16.70;99.90
1411;DHT22;700;51.906;8.404;2023-05-10T21:35:37;16.80;99.90
1411;DHT22;700;51.906;8.404;2023-05-10T21:40:41;16.80;99.90
1411;DHT22;700;51.906;8.404;2023-05-10T21:45:42;16.70;99.90
1411;DHT22;700;51.906;8.404;2023-05-10T21:50:43;16.80;99.90
1411;DHT22;700;51.906;8.404;2023-05-10T21:55:44;16.80;99.90
1411;DHT22;700;51.906;8.404;2023-05-10T22:00:45;17.00;99.90
1411;DHT22;700;51.906;8.404;2023-05-10T22:05:46;17.00;99.90
1411;DHT22;700;51.906;8.404;2023-05-10T22:10:46;17.00;99.90
1411;DHT22;700;51.906;8.404;2023-05-10T22:15:47;17.10;99.90
1411;DHT22;700;51.906;8.404;2023-05-10T22:20:48;17.10;99.90
1411;DHT22;700;51.906;8.404;2023-05-10T22:25:50;17.20;99.90
1411;DHT22;700;51.906;8.404;2023-05-10T22:30:53;17.30;99.90
1411;DHT22;700;51.906;8.404;2023-05-10T22:35:56;17.30;99.90
1411;DHT22;700;51.906;8.404;2023-05-10T22:40:59;17.20;99.90
1411;DHT22;700;51.906;8.404;2023-05-10T22:46:00;17.20;99.90
1411;DHT22;700;51.906;8.404;2023-05-10T22:51:00;17.30;99.90
1411;DHT22;700;51.906;8.404;2023-05-10T22:56:04;17.20;99.90
1411;DHT22;700;51.906;8.404;2023-05-10T23:01:05;17.20;99.90
1411;DHT22;700;51.906;8.404;2023-05-10T23:06:08;17.30;99.90
1411;DHT22;700;51.906;8.404;2023-05-10T23:11:11;17.30;99.90
1411;DHT22;700;51.906;8.404;2023-05-10T23:16:17;17.30;99.90
1411;DHT22;700;51.906;8.404;2023-05-10T23:21:17;17.30;99.90
1411;DHT22;700;51.906;8.404;2023-05-10T23:26:18;17.30;99.90
1411;DHT22;700;51.906;8.404;2023-05-10T23:31:19;17.30;99.90
1411;DHT22;700;51.906;8.404;2023-05-10T23:36:22;17.30;99.90
1411;DHT22;700;51.906;8.404;2023-05-10T23:41:22;17.30;99.90
1411;DHT22;700;51.906;8.404;2023-05-10T23:46:25;17.30;99.90
1411;DHT22;700;51.906;8.404;2023-05-10T23:51:28;17.30;99.90
1411;DHT22;700;51.906;8.404;2023-05-10T23:56:29;17.30;99.90
